sensor_id;sensor_type;location;lat;lon;timestamp;pressure;altitude;pressure_sealevel;temperature;humidity
10476;BME280;26166;48.264;11.436;2023-04-23T00:02:14;95642.00;;;12.53;62.66
10476;BME280;26166;48.264;11.436;2023-04-23T00:05:15;95643.19;;;12.51;63.17
10476;BME280;26166;48.264;11.436;2023-04-23T00:08:16;95641.56;;;12.50;62.94
10476;BME280;26166;48.264;11.436;2023-04-23T00:11:17;95638.28;;;12.48;62.92
10476;BME280;26166;48.264;11.436;2023-04-23T00:14:17;95648.22;;;12.46;63.28
10476;BME280;26166;48.264;11.436;2023-04-23T00:17:17;95640.31;;;12.46;63.36
10476;BME280;26166;48.264;11.436;2023-04-23T00:20:18;95635.03;;;12.46;62.95
10476;BME280;26166;48.264;11.436;2023-04-23T00:23:19;95636.88;;;12.45;63.28
10476;BME280;26166;48.264;11.436;2023-04-23T00:26:19;95634.22;;;12.45;63.14
10476;BME280;26166;48.264;11.436;2023-04-23T00:29:19;95629.78;;;12.46;63.25
10476;BME280;26166;48.264;11.436;2023-04-23T00:32:19;95630.59;;;12.46;63.08
10476;BME280;26166;48.264;11.436;2023-04-23T00:35:21;95628.16;;;12.45;63.09
10476;BME280;26166;48.264;11.436;2023-04-23T00:38:22;95624.72;;;12.44;63.42
10476;BME280;26166;48.264;11.436;2023-04-23T00:41:22;95623.88;;;12.44;63.41
10476;BME280;26166;48.264;11.436;2023-04-23T00:44:23;95624.06;;;12.42;63.50
10476;BME280;26166;48.264;11.436;2023-04-23T00:47:23;95620.63;;;12.42;63.38
10476;BME280;26166;48.264;11.436;2023-04-23T00:50:24;95612.72;;;12.42;63.47
10476;BME280;26166;48.264;11.436;2023-04-23T00:53:24;95618.00;;;12.42;63.38
10476;BME280;26166;48.264;11.436;2023-04-23T00:56:25;95620.63;;;12.42;63.59
10476;BME280;26166;48.264;11.436;2023-04-23T00:59:26;95608.47;;;12.41;63.50
10476;BME280;26166;48.264;11.436;2023-04-23T01:02:27;95612.72;;;12.42;63.26
10476;BME280;26166;48.264;11.436;2023-04-23T01:05:28;95611.09;;;12.41;63.33
10476;BME280;26166;48.264;11.436;2023-04-23T01:08:30;95607.47;;;12.42;63.49
10476;BME280;26166;48.264;11.436;2023-04-23T01:11:31;95600.56;;;12.41;63.55
10476;BME280;26166;48.264;11.436;2023-04-23T01:14:31;95592.03;;;12.38;63.53
10476;BME280;26166;48.264;11.436;2023-04-23T01:17:31;95600.75;;;12.39;63.77
10476;BME280;26166;48.264;11.436;2023-04-23T01:20:33;95603.22;;;12.41;64.23
10476;BME280;26166;48.264;11.436;2023-04-23T01:23:34;95602.56;;;12.38;64.27
10476;BME280;26166;48.264;11.436;2023-04-23T01:26:34;95599.34;;;12.36;64.36
10476;BME280;26166;48.264;11.436;2023-04-23T01:29:34;95601.75;;;12.38;63.95
10476;BME280;26166;48.264;11.436;2023-04-23T01:32:34;95608.84;;;12.37;63.90
10476;BME280;26166;48.264;11.436;2023-04-23T01:35:35;95611.50;;;12.37;63.87
10476;BME280;26166;48.264;11.436;2023-04-23T01:38:36;95611.50;;;12.37;63.96
10476;BME280;26166;48.264;11.436;2023-04-23T01:41:37;95611.50;;;12.37;63.80
10476;BME280;26166;48.264;11.436;2023-04-23T01:44:38;95607.84;;;12.38;64.00
10476;BME280;26166;48.264;11.436;2023-04-23T01:47:39;95610.31;;;12.40;63.76
10476;BME280;26166;48.264;11.436;2023-04-23T01:50:40;95605.22;;;12.38;63.92
10476;BME280;26166;48.264;11.436;2023-04-23T01:53:40;95603.38;;;12.39;64.18
10476;BME280;26166;48.264;11.436;2023-04-23T01:56:40;95600.16;;;12.37;64.72
10476;BME280;26166;48.264;11.436;2023-04-23T01:59:41;95603.59;;;12.37;65.06
10476;BME280;26166;48.264;11.436;2023-04-23T02:02:41;95611.69;;;12.36;65.03
10476;BME280;26166;48.264;11.436;2023-04-23T02:05:42;95607.41;;;12.35;65.19
10476;BME280;26166;48.264;11.436;2023-04-23T02:08:43;95617.13;;;12.34;65.84
10476;BME280;26166;48.264;11.436;2023-04-23T02:11:43;95621.59;;;12.34;65.04
10476;BME280;26166;48.264;11.436;2023-04-23T02:14:43;95611.06;;;12.34;65.04
10476;BME280;26166;48.264;11.436;2023-04-23T02:17:43;95613.69;;;12.34;64.95
10476;BME280;26166;48.264;11.436;2023-04-23T02:20:43;95610.25;;;12.33;64.97
10476;BME280;26166;48.264;11.436;2023-04-23T02:23:43;95615.50;;;12.33;65.31
10476;BME280;26166;48.264;11.436;2023-04-23T02:26:44;95616.31;;;12.34;65.17
10476;BME280;26166;48.264;11.436;2023-04-23T02:29:44;95615.50;;;12.33;65.60
10476;BME280;26166;48.264;11.436;2023-04-23T02:32:44;95616.31;;;12.34;65.17
10476;BME280;26166;48.264;11.436;2023-04-23T02:35:45;95622.41;;;12.34;65.01
10476;BME280;26166;48.264;11.436;2023-04-23T02:38:45;95626.03;;;12.33;66.32
10476;BME280;26166;48.264;11.436;2023-04-23T02:41:47;95627.06;;;12.32;67.71
10476;BME280;26166;48.264;11.436;2023-04-23T02:44:47;95627.06;;;12.32;66.58
10476;BME280;26166;48.264;11.436;2023-04-23T02:47:47;95632.94;;;12.34;66.26
10476;BME280;26166;48.264;11.436;2023-04-23T02:50:48;95630.31;;;12.34;65.88
10476;BME280;26166;48.264;11.436;2023-04-23T02:53:48;95626.69;;;12.35;65.69
10476;BME280;26166;48.264;11.436;2023-04-23T02:56:48;95627.28;;;12.37;65.96
10476;BME280;26166;48.264;11.436;2023-04-23T02:59:48;95629.94;;;12.37;65.93
10476;BME280;26166;48.264;11.436;2023-04-23T03:02:49;95634.19;;;12.38;65.80
10476;BME280;26166;48.264;11.436;2023-04-23T03:05:49;95633.38;;;12.38;65.58
10476;BME280;26166;48.264;11.436;2023-04-23T03:08:49;95638.63;;;12.38;65.98
10476;BME280;26166;48.264;11.436;2023-04-23T03:11:50;95633.38;;;12.38;66.20
10476;BME280;26166;48.264;11.436;2023-04-23T03:14:50;95640.25;;;12.39;66.56
10476;BME280;26166;48.264;11.436;2023-04-23T03:17:50;95635.81;;;12.40;66.89
10476;BME280;26166;48.264;11.436;2023-04-23T03:20:52;95635.81;;;12.40;66.61
10476;BME280;26166;48.264;11.436;2023-04-23T03:23:52;95634.00;;;12.40;66.98
10476;BME280;26166;48.264;11.436;2023-04-23T03:26:53;95632.19;;;12.41;66.35
10476;BME280;26166;48.264;11.436;2023-04-23T03:29:53;95629.53;;;12.41;66.99
10476;BME280;26166;48.264;11.436;2023-04-23T03:32:56;95642.72;;;12.41;68.50
10476;BME280;26166;48.264;11.436;2023-04-23T03:35:56;95634.00;;;12.40;67.96
10476;BME280;26166;48.264;11.436;2023-04-23T03:38:57;95638.47;;;12.40;66.99
10476;BME280;26166;48.264;11.436;2023-04-23T03:41:57;95644.53;;;12.40;67.28
10476;BME280;26166;48.264;11.436;2023-04-23T03:44:57;95647.97;;;12.41;67.60
10476;BME280;26166;48.264;11.436;2023-04-23T03:47:58;95653.25;;;12.41;67.67
10476;BME280;26166;48.264;11.436;2023-04-23T03:50:58;95652.44;;;12.40;67.70
10476;BME280;26166;48.264;11.436;2023-04-23T03:53:59;95655.06;;;12.40;67.61
10476;BME280;26166;48.264;11.436;2023-04-23T03:56:59;95660.50;;;12.38;67.70
10476;BME280;26166;48.264;11.436;2023-04-23T04:00:00;95669.22;;;12.39;67.62
10476;BME280;26166;48.264;11.436;2023-04-23T04:03:01;95670.25;;;12.38;67.92
10476;BME280;26166;48.264;11.436;2023-04-23T04:06:01;95664.16;;;12.37;67.91
10476;BME280;26166;48.264;11.436;2023-04-23T04:09:01;95672.69;;;12.40;68.08
10476;BME280;26166;48.264;11.436;2023-04-23T04:12:02;95675.50;;;12.38;67.98
10476;BME280;26166;48.264;11.436;2023-04-23T04:15:03;95676.31;;;12.38;67.98
10476;BME280;26166;48.264;11.436;2023-04-23T04:18:03;95677.13;;;12.39;71.15
10476;BME280;26166;48.264;11.436;2023-04-23T04:21:03;95675.34;;;12.40;70.10
10476;BME280;26166;48.264;11.436;2023-04-23T04:24:05;95682.41;;;12.39;69.18
10476;BME280;26166;48.264;11.436;2023-04-23T04:27:05;95683.25;;;12.40;69.44
10476;BME280;26166;48.264;11.436;2023-04-23T04:30:05;95678.78;;;12.40;70.50
10476;BME280;26166;48.264;11.436;2023-04-23T04:33:05;95685.88;;;12.40;71.39
10476;BME280;26166;48.264;11.436;2023-04-23T04:36:06;95685.88;;;12.40;71.29
10476;BME280;26166;48.264;11.436;2023-04-23T04:39:08;95691.75;;;12.42;70.38
10476;BME280;26166;48.264;11.436;2023-04-23T04:42:08;95693.78;;;12.40;70.77
10476;BME280;26166;48.264;11.436;2023-04-23T04:45:09;95686.84;;;12.38;71.02
10476;BME280;26166;48.264;11.436;2023-04-23T04:48:10;95694.75;;;12.38;71.57
10476;BME280;26166;48.264;11.436;2023-04-23T04:51:10;95695.75;;;12.37;71.99
10476;BME280;26166;48.264;11.436;2023-04-23T04:54:10;95707.13;;;12.38;70.80
10476;BME280;26166;48.264;11.436;2023-04-23T04:57:11;95699.22;;;12.38;71.62
10476;BME280;26166;48.264;11.436;2023-04-23T05:00:24;95700.22;;;12.37;71.97
10476;BME280;26166;48.264;11.436;2023-04-23T05:03:26;95706.31;;;12.37;71.86
10476;BME280;26166;48.264;11.436;2023-04-23T05:06:27;95714.19;;;12.37;71.04
10476;BME280;26166;48.264;11.436;2023-04-23T05:09:27;95707.91;;;12.38;72.17
10476;BME280;26166;48.264;11.436;2023-04-23T05:12:27;95711.56;;;12.37;72.32
10476;BME280;26166;48.264;11.436;2023-04-23T05:15:28;95708.31;;;12.35;71.25
10476;BME280;26166;48.264;11.436;2023-04-23T05:18:28;95712.59;;;12.36;71.70
10476;BME280;26166;48.264;11.436;2023-04-23T05:21:28;95724.94;;;12.36;71.73
10476;BME280;26166;48.264;11.436;2023-04-23T05:24:28;95718.84;;;12.35;71.62
10476;BME280;26166;48.264;11.436;2023-04-23T05:27:29;95720.66;;;12.35;71.94
10476;BME280;26166;48.264;11.436;2023-04-23T05:30:29;95725.91;;;12.35;71.77
10476;BME280;26166;48.264;11.436;2023-04-23T05:33:29;95731.38;;;12.33;71.29
10476;BME280;26166;48.264;11.436;2023-04-23T05:36:31;95733.41;;;12.31;71.80
10476;BME280;26166;48.264;11.436;2023-04-23T05:39:31;95737.47;;;12.34;72.48
10476;BME280;26166;48.264;11.436;2023-04-23T05:42:31;95737.47;;;12.34;72.28
10476;BME280;26166;48.264;11.436;2023-04-23T05:45:31;95742.72;;;12.34;71.78
10476;BME280;26166;48.264;11.436;2023-04-23T05:48:32;95743.53;;;12.34;72.33
10476;BME280;26166;48.264;11.436;2023-04-23T05:51:32;95748.00;;;12.34;72.15
10476;BME280;26166;48.264;11.436;2023-04-23T05:54:32;95742.72;;;12.34;71.96
10476;BME280;26166;48.264;11.436;2023-04-23T05:57:33;95748.00;;;12.34;71.95
10476;BME280;26166;48.264;11.436;2023-04-23T06:00:33;95740.31;;;12.32;72.27
10476;BME280;26166;48.264;11.436;2023-04-23T06:03:34;95747.19;;;12.33;72.64
10476;BME280;26166;48.264;11.436;2023-04-23T06:06:35;95742.13;;;12.32;71.62
10476;BME280;26166;48.264;11.436;2023-04-23T06:09:36;95745.56;;;12.32;71.58
10476;BME280;26166;48.264;11.436;2023-04-23T06:12:36;95745.13;;;12.29;71.35
10476;BME280;26166;48.264;11.436;2023-04-23T06:15:38;95743.31;;;12.29;71.60
10476;BME280;26166;48.264;11.436;2023-04-23T06:18:38;95742.50;;;12.29;71.65
10476;BME280;26166;48.264;11.436;2023-04-23T06:21:39;95745.94;;;12.29;71.83
10476;BME280;26166;48.264;11.436;2023-04-23T06:24:39;95744.31;;;12.28;71.54
10476;BME280;26166;48.264;11.436;2023-04-23T06:27:39;95744.31;;;12.28;71.41
10476;BME280;26166;48.264;11.436;2023-04-23T06:30:40;95738.03;;;12.29;71.58
10476;BME280;26166;48.264;11.436;2023-04-23T06:33:40;95742.50;;;12.29;71.87
10476;BME280;26166;48.264;11.436;2023-04-23T06:36:40;95747.97;;;12.27;72.04
10476;BME280;26166;48.264;11.436;2023-04-23T06:39:42;95744.69;;;12.25;71.93
10476;BME280;26166;48.264;11.436;2023-04-23T06:42:42;95747.16;;;12.27;71.58
10476;BME280;26166;48.264;11.436;2023-04-23T06:45:44;95751.59;;;12.26;71.95
10476;BME280;26166;48.264;11.436;2023-04-23T06:48:44;95749.94;;;12.25;72.19
10476;BME280;26166;48.264;11.436;2023-04-23T06:51:45;95744.69;;;12.25;72.26
10476;BME280;26166;48.264;11.436;2023-04-23T06:54:45;95745.91;;;12.23;72.89
10476;BME280;26166;48.264;11.436;2023-04-23T06:57:45;95742.63;;;12.21;72.79
10476;BME280;26166;48.264;11.436;2023-04-23T07:00:46;95746.25;;;12.20;72.90
10476;BME280;26166;48.264;11.436;2023-04-23T07:03:46;95747.06;;;12.20;72.58
10476;BME280;26166;48.264;11.436;2023-04-23T07:06:48;95734.09;;;12.19;72.12
10476;BME280;26166;48.264;11.436;2023-04-23T07:09:48;95738.16;;;12.21;72.17
10476;BME280;26166;48.264;11.436;2023-04-23T07:12:48;95738.97;;;12.22;72.36
10476;BME280;26166;48.264;11.436;2023-04-23T07:15:48;95733.72;;;12.22;71.94
10476;BME280;26166;48.264;11.436;2023-04-23T07:18:49;95732.09;;;12.21;72.11
10476;BME280;26166;48.264;11.436;2023-04-23T07:21:49;95732.91;;;12.21;72.27
10476;BME280;26166;48.264;11.436;2023-04-23T07:24:50;95733.72;;;12.22;72.54
10476;BME280;26166;48.264;11.436;2023-04-23T07:27:50;95731.28;;;12.20;72.99
10476;BME280;26166;48.264;11.436;2023-04-23T07:30:50;95728.44;;;12.22;72.65
10476;BME280;26166;48.264;11.436;2023-04-23T07:33:50;95729.66;;;12.19;72.44
10476;BME280;26166;48.264;11.436;2023-04-23T07:36:51;95732.09;;;12.21;72.34
10476;BME280;26166;48.264;11.436;2023-04-23T07:39:51;95731.28;;;12.20;72.24
10476;BME280;26166;48.264;11.436;2023-04-23T07:42:52;95732.09;;;12.21;72.80
10476;BME280;26166;48.264;11.436;2023-04-23T07:45:53;95732.91;;;12.21;72.66
10476;BME280;26166;48.264;11.436;2023-04-23T07:48:53;95736.53;;;12.20;73.04
10476;BME280;26166;48.264;11.436;2023-04-23T07:51:54;95733.09;;;12.20;72.75
10476;BME280;26166;48.264;11.436;2023-04-23T07:54:54;95736.53;;;12.20;72.76
10476;BME280;26166;48.264;11.436;2023-04-23T07:57:55;95739.81;;;12.22;72.25
10476;BME280;26166;48.264;11.436;2023-04-23T08:00:55;95743.25;;;12.23;72.07
10476;BME280;26166;48.264;11.436;2023-04-23T08:03:56;95744.06;;;12.23;72.39
10476;BME280;26166;48.264;11.436;2023-04-23T08:06:56;95734.72;;;12.21;72.32
10476;BME280;26166;48.264;11.436;2023-04-23T08:09:57;95742.63;;;12.21;72.11
10476;BME280;26166;48.264;11.436;2023-04-23T08:13:01;95740.78;;;12.21;72.13
10476;BME280;26166;48.264;11.436;2023-04-23T08:16:02;95736.53;;;12.20;72.10
10476;BME280;26166;48.264;11.436;2023-04-23T08:19:02;95727.84;;;12.20;72.58
10476;BME280;26166;48.264;11.436;2023-04-23T08:22:04;95724.03;;;12.22;73.49
10476;BME280;26166;48.264;11.436;2023-04-23T08:25:04;95719.38;;;12.24;73.87
10476;BME280;26166;48.264;11.436;2023-04-23T08:28:06;95709.47;;;12.26;73.58
10476;BME280;26166;48.264;11.436;2023-04-23T08:31:06;95710.69;;;12.30;73.74
10476;BME280;26166;48.264;11.436;2023-04-23T08:34:07;95713.97;;;12.32;74.09
10476;BME280;26166;48.264;11.436;2023-04-23T08:37:07;95709.31;;;12.34;73.93
10476;BME280;26166;48.264;11.436;2023-04-23T08:40:07;95707.47;;;12.35;74.56
10476;BME280;26166;48.264;11.436;2023-04-23T08:43:43;95716.03;;;12.37;74.88
10476;BME280;26166;48.264;11.436;2023-04-23T08:46:35;95708.94;;;12.37;74.90
10476;BME280;26166;48.264;11.436;2023-04-23T08:49:35;95713.19;;;12.38;74.90
10476;BME280;26166;48.264;11.436;2023-04-23T08:52:37;95706.94;;;12.40;74.60
10476;BME280;26166;48.264;11.436;2023-04-23T08:55:38;95712.81;;;12.42;74.85
10476;BME280;26166;48.264;11.436;2023-04-23T08:58:38;95712.81;;;12.42;74.85
10476;BME280;26166;48.264;11.436;2023-04-23T09:01:40;95706.53;;;12.43;75.28
10476;BME280;26166;48.264;11.436;2023-04-23T09:04:40;95703.91;;;12.43;74.85
10476;BME280;26166;48.264;11.436;2023-04-23T09:07:41;95695.84;;;12.44;75.26
10476;BME280;26166;48.264;11.436;2023-04-23T09:10:41;95697.63;;;12.44;76.03
10476;BME280;26166;48.264;11.436;2023-04-23T09:13:42;95688.91;;;12.43;75.23
10476;BME280;26166;48.264;11.436;2023-04-23T09:16:42;95691.38;;;12.45;75.77
10476;BME280;26166;48.264;11.436;2023-04-23T09:19:43;95693.00;;;12.46;76.26
10476;BME280;26166;48.264;11.436;2023-04-23T09:22:45;95686.09;;;12.45;75.82
10476;BME280;26166;48.264;11.436;2023-04-23T09:25:46;95677.41;;;12.44;75.86
10476;BME280;26166;48.264;11.436;2023-04-23T09:28:47;95686.72;;;12.47;75.17
10476;BME280;26166;48.264;11.436;2023-04-23T09:31:49;95688.34;;;12.48;75.02
10476;BME280;26166;48.264;11.436;2023-04-23T09:34:50;95677.00;;;12.47;74.75
10476;BME280;26166;48.264;11.436;2023-04-23T09:37:55;95682.91;;;12.49;74.87
10476;BME280;26166;48.264;11.436;2023-04-23T09:40:55;95666.28;;;12.49;74.82
10476;BME280;26166;48.264;11.436;2023-04-23T09:43:56;95670.53;;;12.50;75.35
10476;BME280;26166;48.264;11.436;2023-04-23T09:46:56;95673.34;;;12.48;75.08
10476;BME280;26166;48.264;11.436;2023-04-23T09:50:05;95673.34;;;12.48;75.45
10476;BME280;26166;48.264;11.436;2023-04-23T09:53:07;95661.00;;;12.49;75.03
10476;BME280;26166;48.264;11.436;2023-04-23T09:56:07;95662.63;;;12.50;75.24
10476;BME280;26166;48.264;11.436;2023-04-23T09:59:23;95661.00;;;12.49;75.60
10476;BME280;26166;48.264;11.436;2023-04-23T10:02:27;95653.91;;;12.49;74.78
10476;BME280;26166;48.264;11.436;2023-04-23T10:05:28;95650.47;;;12.49;74.51
10476;BME280;26166;48.264;11.436;2023-04-23T10:08:29;95650.47;;;12.49;74.85
10476;BME280;26166;48.264;11.436;2023-04-23T10:11:30;95644.19;;;12.50;75.00
10476;BME280;26166;48.264;11.436;2023-04-23T10:14:31;95644.00;;;12.51;74.68
10476;BME280;26166;48.264;11.436;2023-04-23T10:17:38;95641.56;;;12.50;74.30
10476;BME280;26166;48.264;11.436;2023-04-23T10:20:39;95637.91;;;12.51;74.07
10476;BME280;26166;48.264;11.436;2023-04-23T10:23:40;95648.25;;;12.52;73.66
10476;BME280;26166;48.264;11.436;2023-04-23T10:26:41;95637.53;;;12.54;73.57
10476;BME280;26166;48.264;11.436;2023-04-23T10:29:43;95639.16;;;12.55;73.54
10476;BME280;26166;48.264;11.436;2023-04-23T10:32:43;95642.81;;;12.54;73.70
10476;BME280;26166;48.264;11.436;2023-04-23T10:35:43;95637.53;;;12.54;73.82
10476;BME280;26166;48.264;11.436;2023-04-23T10:38:44;95634.09;;;12.53;73.97
10476;BME280;26166;48.264;11.436;2023-04-23T10:41:45;95635.28;;;12.51;73.90
10476;BME280;26166;48.264;11.436;2023-04-23T10:44:45;95625.38;;;12.53;73.94
10476;BME280;26166;48.264;11.436;2023-04-23T10:47:46;95629.00;;;12.52;73.37
10476;BME280;26166;48.264;11.436;2023-04-23T10:50:46;95634.09;;;12.53;73.34
10476;BME280;26166;48.264;11.436;2023-04-23T10:53:46;95621.09;;;12.52;73.63
10476;BME280;26166;48.264;11.436;2023-04-23T10:56:46;95616.03;;;12.50;73.68
10476;BME280;26166;48.264;11.436;2023-04-23T10:59:56;95615.00;;;12.51;73.41
10476;BME280;26166;48.264;11.436;2023-04-23T11:02:57;95609.75;;;12.51;73.56
10476;BME280;26166;48.264;11.436;2023-04-23T11:06:01;95603.66;;;12.51;73.35
10476;BME280;26166;48.264;11.436;2023-04-23T11:09:02;95597.38;;;12.52;73.27
10476;BME280;26166;48.264;11.436;2023-04-23T11:15:31;95584.03;;;12.53;73.02
10476;BME280;26166;48.264;11.436;2023-04-23T11:18:44;95580.81;;;12.58;72.13
10476;BME280;26166;48.264;11.436;2023-04-23T11:21:58;95578.19;;;12.58;72.76
10476;BME280;26166;48.264;11.436;2023-04-23T11:25:00;95575.72;;;12.56;72.69
10476;BME280;26166;48.264;11.436;2023-04-23T11:28:00;95569.47;;;12.57;72.62
10476;BME280;26166;48.264;11.436;2023-04-23T11:31:01;95558.28;;;12.55;73.07
10476;BME280;26166;48.264;11.436;2023-04-23T11:34:01;95559.91;;;12.56;72.97
10476;BME280;26166;48.264;11.436;2023-04-23T11:37:01;95566.00;;;12.57;72.54
10476;BME280;26166;48.264;11.436;2023-04-23T11:40:05;95561.34;;;12.59;72.40
10476;BME280;26166;48.264;11.436;2023-04-23T11:43:08;95555.28;;;12.58;72.69
10476;BME280;26166;48.264;11.436;2023-04-23T11:46:08;95545.56;;;12.59;72.14
10476;BME280;26166;48.264;11.436;2023-04-23T11:49:08;95532.38;;;12.59;72.23
10476;BME280;26166;48.264;11.436;2023-04-23T11:52:09;95528.94;;;12.58;72.62
10476;BME280;26166;48.264;11.436;2023-04-23T11:55:09;95522.66;;;12.59;72.17
10476;BME280;26166;48.264;11.436;2023-04-23T11:58:09;95510.50;;;12.58;72.22
10476;BME280;26166;48.264;11.436;2023-04-23T12:01:10;95506.25;;;12.57;72.15
10476;BME280;26166;48.264;11.436;2023-04-23T12:04:14;95500.75;;;12.59;72.03
10476;BME280;26166;48.264;11.436;2023-04-23T12:07:14;95504.22;;;12.59;72.09
10476;BME280;26166;48.264;11.436;2023-04-23T12:10:21;95508.47;;;12.60;72.04
10476;BME280;26166;48.264;11.436;2023-04-23T12:13:22;95502.59;;;12.58;72.18
10476;BME280;26166;48.264;11.436;2023-04-23T12:16:32;95493.88;;;12.58;72.01
10476;BME280;26166;48.264;11.436;2023-04-23T12:19:32;95496.50;;;12.58;71.99
10476;BME280;26166;48.264;11.436;2023-04-23T12:22:33;95495.88;;;12.56;72.06
10476;BME280;26166;48.264;11.436;2023-04-23T12:25:33;95492.84;;;12.59;71.78
10476;BME280;26166;48.264;11.436;2023-04-23T12:28:34;95478.66;;;12.60;71.74
10476;BME280;26166;48.264;11.436;2023-04-23T12:31:35;95473.00;;;12.63;71.17
10476;BME280;26166;48.264;11.436;2023-04-23T12:34:36;95469.34;;;12.64;71.50
10476;BME280;26166;48.264;11.436;2023-04-23T12:37:36;95462.25;;;12.65;71.16
10476;BME280;26166;48.264;11.436;2023-04-23T12:40:36;95465.09;;;12.63;71.29
10476;BME280;26166;48.264;11.436;2023-04-23T12:43:36;95461.66;;;12.62;71.55
10476;BME280;26166;48.264;11.436;2023-04-23T12:46:37;95448.66;;;12.61;71.16
10476;BME280;26166;48.264;11.436;2023-04-23T12:49:37;95456.56;;;12.61;71.04
10476;BME280;26166;48.264;11.436;2023-04-23T12:52:38;95450.91;;;12.64;71.04
10476;BME280;26166;48.264;11.436;2023-04-23T12:55:38;95458.63;;;12.66;70.99
10476;BME280;26166;48.264;11.436;2023-04-23T12:58:38;95454.19;;;12.66;71.35
10476;BME280;26166;48.264;11.436;2023-04-23T13:01:38;95442.63;;;12.67;71.02
10476;BME280;26166;48.264;11.436;2023-04-23T13:04:39;95438.97;;;12.68;71.25
10476;BME280;26166;48.264;11.436;2023-04-23T13:07:39;95436.53;;;12.67;71.29
10476;BME280;26166;48.264;11.436;2023-04-23T13:10:39;95424.19;;;12.67;71.12
10476;BME280;26166;48.264;11.436;2023-04-23T13:13:39;95418.69;;;12.69;70.83
10476;BME280;26166;48.264;11.436;2023-04-23T13:16:40;95421.97;;;12.71;70.40
10476;BME280;26166;48.264;11.436;2023-04-23T13:19:40;95411.44;;;12.71;71.15
10476;BME280;26166;48.264;11.436;2023-04-23T13:22:40;95398.44;;;12.69;71.17
10476;BME280;26166;48.264;11.436;2023-04-23T13:25:40;95391.53;;;12.68;71.46
10476;BME280;26166;48.264;11.436;2023-04-23T13:28:41;95381.41;;;12.65;71.35
10476;BME280;26166;48.264;11.436;2023-04-23T13:31:41;95386.66;;;12.65;71.39
10476;BME280;26166;48.264;11.436;2023-04-23T13:34:41;95371.88;;;12.64;71.44
10476;BME280;26166;48.264;11.436;2023-04-23T13:37:42;95370.06;;;12.65;71.46
10476;BME280;26166;48.264;11.436;2023-04-23T13:40:42;95363.97;;;12.64;71.41
10476;BME280;26166;48.264;11.436;2023-04-23T13:43:42;95357.69;;;12.65;71.31
10476;BME280;26166;48.264;11.436;2023-04-23T13:46:42;95345.13;;;12.67;70.94
10476;BME280;26166;48.264;11.436;2023-04-23T13:49:42;95339.44;;;12.70;70.80
10476;BME280;26166;48.264;11.436;2023-04-23T13:52:43;95345.34;;;12.72;70.64
10476;BME280;26166;48.264;11.436;2023-04-23T13:55:43;95340.88;;;12.73;70.89
10476;BME280;26166;48.264;11.436;2023-04-23T13:58:43;95333.19;;;12.71;71.16
10476;BME280;26166;48.264;11.436;2023-04-23T14:01:46;95326.69;;;12.74;70.89
10476;BME280;26166;48.264;11.436;2023-04-23T14:04:48;95326.91;;;12.72;71.14
10476;BME280;26166;48.264;11.436;2023-04-23T14:07:49;95324.66;;;12.69;71.32
10476;BME280;26166;48.264;11.436;2023-04-23T14:10:49;95319.38;;;12.69;70.63
10476;BME280;26166;48.264;11.436;2023-04-23T14:13:49;95324.25;;;12.72;70.98
10476;BME280;26166;48.264;11.436;2023-04-23T14:16:50;95319.59;;;12.74;70.36
10476;BME280;26166;48.264;11.436;2023-04-23T14:19:50;95322.63;;;12.78;70.24
10476;BME280;26166;48.264;11.436;2023-04-23T14:22:54;95312.09;;;12.78;70.49
10476;BME280;26166;48.264;11.436;2023-04-23T14:25:58;95321.00;;;12.77;70.70
10476;BME280;26166;48.264;11.436;2023-04-23T14:29:03;95320.22;;;12.76;70.66
10476;BME280;26166;48.264;11.436;2023-04-23T14:32:07;95305.59;;;12.74;70.57
10476;BME280;26166;48.264;11.436;2023-04-23T14:35:07;95310.06;;;12.73;70.29
10476;BME280;26166;48.264;11.436;2023-04-23T14:38:08;95310.28;;;12.72;70.76
10476;BME280;26166;48.264;11.436;2023-04-23T14:41:08;95298.94;;;12.71;70.75
10476;BME280;26166;48.264;11.436;2023-04-23T14:44:08;95288.97;;;12.73;70.50
10476;BME280;26166;48.264;11.436;2023-04-23T14:47:08;95283.31;;;12.76;70.39
10476;BME280;26166;48.264;11.436;2023-04-23T14:50:10;95284.94;;;12.77;70.33
10476;BME280;26166;48.264;11.436;2023-04-23T14:53:10;95272.38;;;12.79;69.98
10476;BME280;26166;48.264;11.436;2023-04-23T14:56:11;95275.00;;;12.79;70.36
10476;BME280;26166;48.264;11.436;2023-04-23T14:59:11;95274.38;;;12.77;70.50
10476;BME280;26166;48.264;11.436;2023-04-23T15:02:11;95269.75;;;12.79;70.50
10476;BME280;26166;48.264;11.436;2023-04-23T15:05:11;95266.69;;;12.76;70.33
10476;BME280;26166;48.264;11.436;2023-04-23T15:08:12;95259.78;;;12.75;70.63
10476;BME280;26166;48.264;11.436;2023-04-23T15:11:12;95267.91;;;12.73;70.62
10476;BME280;26166;48.264;11.436;2023-04-23T15:14:29;95267.09;;;12.73;70.40
10476;BME280;26166;48.264;11.436;2023-04-23T15:17:30;95254.13;;;12.71;70.73
10476;BME280;26166;48.264;11.436;2023-04-23T15:20:31;95253.50;;;12.69;70.76
10476;BME280;26166;48.264;11.436;2023-04-23T15:23:32;95259.41;;;12.71;70.56
10476;BME280;26166;48.264;11.436;2023-04-23T15:26:32;95254.13;;;12.71;70.46
10476;BME280;26166;48.264;11.436;2023-04-23T15:29:33;95248.06;;;12.71;70.26
10476;BME280;26166;48.264;11.436;2023-04-23T15:32:33;95257.16;;;12.68;70.50
10476;BME280;26166;48.264;11.436;2023-04-23T15:35:33;95249.25;;;12.68;70.57
10476;BME280;26166;48.264;11.436;2023-04-23T15:38:33;95249.25;;;12.68;70.59
10476;BME280;26166;48.264;11.436;2023-04-23T15:41:34;95239.53;;;12.69;70.28
10476;BME280;26166;48.264;11.436;2023-04-23T15:44:34;95235.06;;;12.69;70.18
10476;BME280;26166;48.264;11.436;2023-04-23T15:47:34;95233.06;;;12.71;69.98
10476;BME280;26166;48.264;11.436;2023-04-23T15:50:35;95236.69;;;12.70;70.19